Dallas, Texas
Traffic Map
Current Weather Conditions
Dallas, Texas
Broken Clouds
Broken Clouds
76°
Feels Like: 76°
Wind Chill: 76° Ceiling: 11000
Heat Index: 76° Visibility: 10mi
Dew Point: 72° Wind: 7mph
Humidity: 87% Direction: 170° (S)
Pressure: 29.94in Gusts: 0mph
Raw Report DataKDAL 272253Z 17006KT 10SM FEW020CB SCT085 BKN110 BKN250 24/22 A2994 RMK AO2 RAE21 TSE20 SLP132 OCNL LTGIC DSNT W TS MOVD SW CBMAM E-OHD-W CB DSNT S-SW-W MOV S P0002 T02440222 $
Traffic Incident Summary
Active as of:
Severity:
Category:
InformationThere was an issue retrieving the traffic information for this location. Please try a different location or try again shortly.
Advertisements
Track Severe Weather on mobile